createdAt,value
2018-11-25T00:00:42.547Z,57.15
2018-11-25T00:01:30.545Z,67.78
2018-11-25T00:02:18.659Z,52.75
2018-11-25T00:03:06.641Z,52.35
2018-11-25T00:03:54.250Z,55.10
2018-11-25T00:04:41.915Z,52.50
2018-11-25T00:05:29.585Z,62.03
2018-11-25T00:06:17.725Z,55.60
2018-11-25T00:07:06.289Z,54.98
2018-11-25T00:07:54.402Z,52.93
2018-11-25T00:08:42.046Z,59.50
2018-11-25T00:09:29.750Z,57.05
2018-11-25T00:10:17.261Z,56.40
2018-11-25T00:11:05.017Z,58.28
2018-11-25T00:11:52.617Z,57.25
2018-11-25T00:12:40.357Z,59.93
2018-11-25T00:13:28.443Z,56.85
2018-11-25T00:14:16.085Z,52.98
2018-11-25T00:15:05.533Z,53.87
2018-11-25T00:15:53.059Z,59.25
2018-11-25T00:16:41.552Z,56.92
2018-11-25T00:17:29.895Z,53.42
2018-11-25T00:18:18.254Z,54.42
2018-11-25T00:19:06.332Z,63.63
2018-11-25T00:19:54.051Z,61.23
2018-11-25T00:20:41.703Z,55.45
2018-11-25T00:21:30.368Z,58.87
2018-11-25T00:22:18.326Z,54.73
2018-11-25T00:23:06.105Z,54.18
2018-11-25T00:23:54.128Z,52.25
2018-11-25T00:24:41.686Z,54.15
2018-11-25T00:25:29.742Z,74.12
2018-11-25T00:26:17.268Z,73.52
2018-11-25T00:27:05.201Z,72.10
2018-11-25T00:27:53.210Z,72.42
2018-11-25T00:28:41.533Z,73.45
2018-11-25T00:29:29.764Z,71.82
2018-11-25T00:30:17.661Z,65.67
2018-11-25T00:31:09.679Z,63.73
2018-11-25T00:31:54.437Z,69.22
2018-11-25T00:32:42.022Z,83.10
2018-11-25T00:33:29.566Z,74.27
2018-11-25T00:34:17.066Z,64.27
2018-11-25T00:35:04.554Z,66.30
2018-11-25T00:35:52.180Z,68.83
2018-11-25T00:36:39.684Z,80.30
2018-11-25T00:37:27.598Z,79.65
2018-11-25T00:38:15.226Z,65.70
2018-11-25T00:39:03.066Z,115.37
2018-11-25T00:39:51.018Z,80.47
2018-11-25T00:40:39.153Z,101.87
2018-11-25T00:41:27.317Z,83.03
2018-11-25T00:42:15.150Z,76.55
2018-11-25T00:43:03.347Z,74.30
2018-11-25T00:43:51.271Z,81.63
2018-11-25T00:44:39.345Z,75.83
2018-11-25T00:45:27.401Z,103.62
2018-11-25T00:46:15.011Z,71.62
2018-11-25T00:47:03.025Z,83.22
2018-11-25T00:47:50.997Z,87.92
2018-11-25T00:48:39.427Z,74.70
2018-11-25T00:49:27.437Z,79.50
2018-11-25T00:50:15.331Z,69.87
2018-11-25T00:51:03.090Z,69.12
2018-11-25T00:51:50.936Z,69.30
2018-11-25T00:52:38.740Z,99.65
2018-11-25T00:53:26.890Z,110.95
2018-11-25T00:54:14.534Z,104.32
2018-11-25T00:55:02.102Z,79.07
2018-11-25T00:55:49.684Z,120.60
2018-11-25T00:56:37.178Z,79.40
2018-11-25T00:57:25.228Z,94.87
2018-11-25T00:58:12.906Z,80.80
2018-11-25T00:59:01.003Z,91.47
2018-11-25T00:59:48.655Z,109.25
2018-11-25T01:00:36.179Z,140.37
2018-11-25T01:01:24.306Z,87.12
2018-11-25T01:02:11.776Z,105.55
2018-11-25T01:02:59.875Z,91.57
2018-11-25T01:03:47.370Z,90.70
2018-11-25T01:04:35.288Z,97.90
2018-11-25T01:05:22.882Z,102.87
2018-11-25T01:06:10.571Z,110.00
2018-11-25T01:06:58.805Z,96.78
2018-11-25T01:07:46.613Z,88.60
2018-11-25T01:08:34.322Z,98.60
2018-11-25T01:09:22.120Z,90.92
2018-11-25T01:10:17.184Z,97.37
2018-11-25T01:11:04.918Z,134.10
2018-11-25T01:11:52.814Z,285.13
2018-11-25T01:12:40.295Z,111.62
2018-11-25T01:13:28.633Z,162.70
2018-11-25T01:14:17.421Z,95.62
2018-11-25T01:15:05.675Z,152.40
2018-11-25T01:15:53.748Z,110.88
2018-11-25T01:16:41.549Z,155.60
2018-11-25T01:17:29.665Z,101.92
2018-11-25T01:18:17.615Z,84.92
2018-11-25T01:19:05.113Z,85.07
2018-11-25T01:19:52.734Z,108.75
2018-11-25T01:20:40.208Z,85.32
2018-11-25T01:21:28.214Z,80.12
2018-11-25T01:22:16.019Z,103.12
2018-11-25T01:23:04.028Z,99.85
2018-11-25T01:23:51.971Z,97.08
2018-11-25T01:24:39.680Z,86.00
2018-11-25T01:25:27.771Z,80.20
2018-11-25T01:26:15.686Z,86.05
2018-11-25T01:27:03.977Z,142.37
2018-11-25T01:27:51.899Z,140.18
2018-11-25T01:28:39.696Z,86.08
2018-11-25T01:29:27.794Z,88.42
2018-11-25T01:30:18.468Z,126.10
2018-11-25T01:31:06.464Z,80.72
2018-11-25T01:31:54.018Z,99.15
2018-11-25T01:32:41.575Z,103.25
2018-11-25T01:33:29.031Z,111.92
2018-11-25T01:34:16.663Z,109.67
2018-11-25T01:35:04.297Z,100.07
2018-11-25T01:35:52.514Z,85.40
2018-11-25T01:36:40.269Z,102.15
2018-11-25T01:37:28.359Z,82.17
2018-11-25T01:38:15.998Z,74.32
2018-11-25T01:39:04.561Z,75.12
2018-11-25T01:39:52.450Z,81.47
2018-11-25T01:40:40.544Z,77.20
2018-11-25T01:41:27.998Z,75.28
2018-11-25T01:42:16.010Z,86.63
2018-11-25T01:43:03.559Z,83.00
2018-11-25T01:43:51.468Z,73.05
2018-11-25T01:44:40.406Z,78.95
2018-11-25T01:45:28.385Z,80.28
2018-11-25T01:46:16.009Z,76.72
2018-11-25T01:47:03.788Z,68.52
2018-11-25T01:47:51.530Z,79.60
2018-11-25T01:48:39.292Z,73.45
2018-11-25T01:49:27.479Z,70.15
2018-11-25T01:50:16.763Z,76.05
2018-11-25T01:51:04.670Z,73.55
2018-11-25T01:51:52.143Z,84.58
2018-11-25T01:52:39.676Z,79.03
2018-11-25T01:53:27.711Z,76.05
2018-11-25T01:54:15.220Z,80.55
2018-11-25T01:55:02.738Z,71.17
2018-11-25T01:55:50.384Z,82.12
2018-11-25T01:56:38.267Z,67.55
2018-11-25T01:57:25.848Z,64.90
2018-11-25T01:58:13.499Z,64.50
2018-11-25T01:59:01.037Z,72.10
2018-11-25T01:59:48.658Z,65.50
2018-11-25T02:00:36.823Z,73.35
2018-11-25T02:01:24.571Z,61.98
2018-11-25T02:02:12.390Z,78.40
2018-11-25T02:03:00.031Z,76.50
2018-11-25T02:03:48.102Z,66.55
2018-11-25T02:04:36.632Z,63.15
2018-11-25T02:05:24.446Z,62.20
2018-11-25T02:06:12.383Z,67.67
2018-11-25T02:06:59.884Z,65.57
2018-11-25T02:07:47.327Z,78.47
2018-11-25T02:08:34.964Z,82.92
2018-11-25T02:09:22.496Z,75.60
2018-11-25T02:10:14.873Z,79.53
2018-11-25T02:11:02.738Z,71.70
2018-11-25T02:11:51.096Z,86.30
2018-11-25T02:12:39.148Z,87.95
2018-11-25T02:13:26.712Z,67.67
2018-11-25T02:14:14.308Z,83.47
2018-11-25T02:15:01.867Z,80.38
2018-11-25T02:15:49.414Z,78.83
2018-11-25T02:16:37.200Z,74.40
2018-11-25T02:17:25.234Z,71.75
2018-11-25T02:18:12.767Z,96.53
2018-11-25T02:19:00.574Z,68.67
2018-11-25T02:19:48.071Z,65.52
2018-11-25T02:20:35.640Z,85.65
2018-11-25T02:21:23.194Z,88.00
2018-11-25T02:22:11.122Z,69.77
2018-11-25T02:22:58.707Z,82.50
2018-11-25T02:23:46.406Z,79.70
2018-11-25T02:24:34.147Z,74.00
2018-11-25T02:25:22.418Z,82.80
2018-11-25T02:26:10.255Z,76.95
2018-11-25T02:26:57.807Z,75.37
2018-11-25T02:27:45.856Z,77.25
2018-11-25T02:28:33.649Z,71.67
2018-11-25T02:29:21.750Z,74.70
2018-11-25T02:30:12.112Z,74.90
2018-11-25T02:30:59.841Z,73.02
2018-11-25T02:31:47.774Z,108.35
2018-11-25T02:32:35.719Z,79.77
2018-11-25T02:33:23.271Z,73.85
2018-11-25T02:34:10.858Z,74.47
2018-11-25T02:34:58.545Z,64.97
2018-11-25T02:35:46.824Z,84.67
2018-11-25T02:36:34.552Z,69.75
2018-11-25T02:37:22.257Z,98.65
2018-11-25T02:38:09.794Z,79.70
2018-11-25T02:38:57.618Z,67.92
2018-11-25T02:39:45.170Z,73.33
2018-11-25T02:40:32.729Z,74.58
2018-11-25T02:41:20.309Z,79.03
2018-11-25T02:42:07.848Z,147.55
2018-11-25T02:42:55.435Z,77.17
2018-11-25T02:43:43.424Z,88.20
2018-11-25T02:44:30.999Z,91.92
2018-11-25T02:45:20.515Z,83.20
2018-11-25T02:46:08.277Z,83.80
2018-11-25T02:46:55.918Z,104.97
2018-11-25T02:47:44.176Z,149.57
2018-11-25T02:48:31.917Z,159.30
2018-11-25T02:49:19.642Z,91.20
2018-11-25T02:50:30.955Z,114.42
2018-11-25T02:51:20.310Z,125.87
2018-11-25T02:52:08.083Z,117.85
2018-11-25T02:52:56.928Z,99.77
2018-11-25T02:53:44.654Z,93.58
2018-11-25T02:54:32.820Z,89.58
2018-11-25T02:55:27.942Z,92.17
2018-11-25T02:56:15.801Z,101.80
2018-11-25T02:57:03.352Z,105.72
2018-11-25T02:57:51.505Z,139.47
2018-11-25T02:58:39.530Z,189.20
2018-11-25T02:59:27.323Z,119.82
2018-11-25T03:00:15.199Z,119.70
2018-11-25T03:01:08.716Z,91.57
2018-11-25T03:01:56.326Z,83.92
2018-11-25T03:02:43.978Z,141.45
2018-11-25T03:03:31.497Z,126.72
2018-11-25T03:04:18.973Z,109.48
2018-11-25T03:05:06.671Z,76.72
2018-11-25T03:05:54.747Z,101.67
2018-11-25T03:06:42.605Z,88.20
2018-11-25T03:07:30.169Z,109.05
2018-11-25T03:08:18.088Z,141.10
2018-11-25T03:09:07.639Z,149.62
2018-11-25T03:09:55.625Z,112.92
2018-11-25T03:10:43.356Z,96.97
2018-11-25T03:11:31.203Z,99.28
2018-11-25T03:12:18.824Z,104.03
2018-11-25T03:13:06.410Z,84.80
2018-11-25T03:13:54.335Z,97.88
2018-11-25T03:14:41.937Z,129.18
2018-11-25T03:15:29.534Z,97.02
2018-11-25T03:16:17.447Z,103.67
2018-11-25T03:17:04.973Z,115.12
2018-11-25T03:17:52.730Z,128.20
2018-11-25T03:18:40.742Z,92.60
2018-11-25T03:19:28.304Z,91.47
2018-11-25T03:20:16.840Z,93.27
2018-11-25T03:21:05.116Z,108.75
2018-11-25T03:21:52.922Z,95.42
2018-11-25T03:22:40.691Z,94.52
2018-11-25T03:23:28.652Z,88.85
2018-11-25T03:24:16.690Z,82.88
2018-11-25T03:25:04.266Z,83.67
2018-11-25T03:25:51.938Z,83.17
2018-11-25T03:26:39.501Z,88.27
2018-11-25T03:27:27.913Z,87.65
2018-11-25T03:28:15.455Z,81.22
2018-11-25T03:29:03.039Z,79.35
2018-11-25T03:29:50.762Z,100.58
2018-11-25T03:30:38.348Z,101.27
2018-11-25T03:31:26.511Z,101.75
2018-11-25T03:32:14.446Z,118.85
2018-11-25T03:33:02.660Z,94.52
2018-11-25T03:33:50.268Z,86.20
2018-11-25T03:34:38.117Z,152.43
2018-11-25T03:35:26.288Z,110.97
2018-11-25T03:36:13.889Z,172.80
2018-11-25T03:37:01.401Z,142.57
2018-11-25T03:37:49.231Z,106.92
2018-11-25T03:38:37.375Z,106.75
2018-11-25T03:39:24.909Z,120.80
2018-11-25T03:40:13.722Z,130.72
2018-11-25T03:41:01.734Z,163.40
2018-11-25T03:41:49.723Z,138.50
2018-11-25T03:42:37.689Z,133.30
2018-11-25T03:43:25.325Z,143.02
2018-11-25T03:44:12.733Z,99.42
2018-11-25T03:45:00.341Z,107.78
2018-11-25T03:45:47.922Z,134.12
2018-11-25T03:46:35.714Z,129.70
2018-11-25T03:47:23.889Z,87.22
2018-11-25T03:48:11.593Z,97.30
2018-11-25T03:48:59.650Z,94.85
2018-11-25T03:49:47.192Z,103.53
2018-11-25T03:50:34.755Z,137.20
2018-11-25T03:51:22.367Z,105.78
2018-11-25T03:52:09.888Z,113.75
2018-11-25T03:52:57.582Z,124.80
2018-11-25T03:53:45.110Z,105.03
2018-11-25T03:54:32.609Z,123.20
2018-11-25T03:55:20.224Z,343.07
2018-11-25T03:56:07.773Z,149.75
2018-11-25T03:56:55.252Z,264.40
2018-11-25T03:57:44.369Z,219.07
2018-11-25T03:58:31.886Z,232.80
2018-11-25T03:59:19.327Z,172.70
2018-11-25T04:00:10.576Z,282.17
2018-11-25T04:00:58.638Z,254.72
2018-11-25T04:01:46.210Z,277.98
2018-11-25T04:02:34.050Z,146.60
2018-11-25T04:03:21.573Z,119.10
2018-11-25T04:04:09.215Z,124.60
2018-11-25T04:04:56.778Z,133.30
2018-11-25T04:05:44.344Z,110.55
2018-11-25T04:06:31.879Z,236.90
2018-11-25T04:07:19.450Z,188.78
2018-11-25T04:08:07.258Z,165.07
2018-11-25T04:08:55.043Z,122.50
2018-11-25T04:09:42.796Z,296.02
2018-11-25T04:10:30.825Z,196.63
2018-11-25T04:11:18.361Z,374.55
2018-11-25T04:12:06.415Z,172.78
2018-11-25T04:12:54.339Z,161.45
2018-11-25T04:13:42.167Z,114.65
2018-11-25T04:14:30.083Z,110.78
2018-11-25T04:15:19.025Z,119.47
2018-11-25T04:16:06.819Z,135.88
2018-11-25T04:16:54.934Z,242.70
2018-11-25T04:17:43.159Z,106.90
2018-11-25T04:18:31.055Z,140.40
2018-11-25T04:19:18.599Z,141.57
2018-11-25T04:20:08.159Z,128.53
2018-11-25T04:20:55.597Z,133.20
2018-11-25T04:21:43.342Z,208.23
2018-11-25T04:22:31.374Z,123.58
2018-11-25T04:23:19.689Z,228.37
2018-11-25T04:24:07.385Z,248.70
2018-11-25T04:24:54.966Z,123.87
2018-11-25T04:25:42.722Z,135.68
2018-11-25T04:26:48.457Z,124.07
2018-11-25T04:27:36.466Z,179.32
2018-11-25T04:28:24.522Z,181.52
2018-11-25T04:29:12.036Z,106.80
2018-11-25T04:29:59.539Z,133.52
2018-11-25T04:30:47.077Z,114.12
2018-11-25T04:31:35.071Z,113.95
2018-11-25T04:32:23.195Z,106.07
2018-11-25T04:33:10.921Z,107.85
2018-11-25T04:33:58.930Z,96.63
2018-11-25T04:34:46.662Z,102.27
2018-11-25T04:35:34.509Z,96.78
2018-11-25T04:36:22.526Z,163.32
2018-11-25T04:37:10.087Z,101.75
2018-11-25T04:37:58.106Z,101.30
2018-11-25T04:38:46.121Z,99.97
2018-11-25T04:39:33.706Z,97.72
2018-11-25T04:40:21.455Z,88.55
2018-11-25T04:41:09.357Z,105.85
2018-11-25T04:41:56.961Z,97.15
2018-11-25T04:42:44.528Z,85.38
2018-11-25T04:43:32.269Z,89.75
2018-11-25T04:44:19.748Z,80.80
2018-11-25T04:45:09.721Z,87.95
2018-11-25T04:45:57.566Z,92.37
2018-11-25T04:46:45.342Z,100.90
2018-11-25T04:47:33.210Z,89.65
2018-11-25T04:48:20.950Z,94.60
2018-11-25T04:49:08.554Z,91.02
2018-11-25T04:49:56.037Z,121.60
2018-11-25T04:50:43.671Z,94.22
2018-11-25T04:51:31.812Z,93.30
2018-11-25T04:52:19.219Z,85.77
2018-11-25T04:53:07.253Z,92.00
2018-11-25T04:53:55.278Z,86.02
2018-11-25T04:54:42.970Z,91.15
2018-11-25T04:56:27.874Z,99.10
2018-11-25T04:57:16.016Z,79.62
2018-11-25T04:58:03.995Z,89.45
2018-11-25T04:58:51.539Z,137.75
2018-11-25T04:59:39.315Z,90.03
2018-11-25T05:00:27.374Z,88.37
2018-11-25T05:01:14.944Z,100.53
2018-11-25T05:02:02.422Z,84.35
2018-11-25T05:02:50.833Z,79.58
2018-11-25T05:03:38.637Z,80.80
2018-11-25T05:04:26.213Z,111.28
2018-11-25T05:05:14.831Z,97.02
2018-11-25T05:06:03.289Z,98.27
2018-11-25T05:06:51.421Z,97.37
2018-11-25T05:07:39.395Z,85.55
2018-11-25T05:08:27.042Z,78.67
2018-11-25T05:09:15.201Z,76.45
2018-11-25T05:10:02.898Z,90.00
2018-11-25T05:10:50.632Z,92.22
2018-11-25T05:11:38.246Z,89.45
2018-11-25T05:12:26.338Z,83.05
2018-11-25T05:13:14.392Z,77.50
2018-11-25T05:14:02.126Z,88.45
2018-11-25T05:14:50.061Z,77.08
2018-11-25T05:15:37.613Z,89.92
2018-11-25T05:16:25.698Z,98.72
2018-11-25T05:17:13.427Z,108.50
2018-11-25T05:18:01.900Z,111.03
2018-11-25T05:18:49.986Z,87.53
2018-11-25T05:19:37.543Z,88.95
2018-11-25T05:20:25.147Z,101.60
2018-11-25T05:21:12.749Z,91.15
2018-11-25T05:22:00.785Z,100.38
2018-11-25T05:22:48.507Z,91.17
2018-11-25T05:23:36.550Z,124.55
2018-11-25T05:24:24.501Z,101.22
2018-11-25T05:25:16.069Z,113.55
2018-11-25T05:26:04.543Z,101.97
2018-11-25T05:26:52.942Z,105.10
2018-11-25T05:27:40.573Z,109.97
2018-11-25T05:28:28.125Z,112.90
2018-11-25T05:29:16.034Z,132.00
2018-11-25T05:30:04.241Z,119.70
2018-11-25T05:30:52.598Z,87.00
2018-11-25T05:31:40.091Z,98.70
2018-11-25T05:32:27.580Z,98.10
2018-11-25T05:33:15.171Z,93.62
2018-11-25T05:34:03.212Z,107.60
2018-11-25T05:34:50.926Z,107.40
2018-11-25T05:35:38.393Z,105.80
2018-11-25T05:36:26.343Z,105.40
2018-11-25T05:37:13.843Z,118.75
2018-11-25T05:38:01.334Z,109.03
2018-11-25T05:38:48.959Z,112.77
2018-11-25T05:39:36.732Z,103.53
2018-11-25T05:40:24.457Z,104.12
2018-11-25T05:41:13.105Z,90.40
2018-11-25T05:42:00.752Z,86.17
2018-11-25T05:42:48.251Z,93.07
2018-11-25T05:43:35.790Z,89.22
2018-11-25T05:44:23.306Z,97.92
2018-11-25T05:45:18.125Z,109.40
2018-11-25T05:46:07.027Z,83.70
2018-11-25T05:46:55.010Z,78.12
2018-11-25T05:47:43.141Z,77.05
2018-11-25T05:48:31.278Z,82.95
2018-11-25T05:49:19.101Z,80.87
2018-11-25T05:50:08.373Z,82.17
2018-11-25T05:50:56.527Z,83.07
2018-11-25T05:51:44.195Z,78.20
2018-11-25T05:52:31.754Z,74.10
2018-11-25T05:53:19.162Z,96.63
2018-11-25T05:54:06.871Z,76.70
2018-11-25T05:54:54.792Z,80.42
2018-11-25T05:55:42.357Z,100.50
2018-11-25T05:56:30.343Z,91.42
2018-11-25T05:57:18.186Z,106.15
2018-11-25T05:58:06.001Z,80.07
2018-11-25T05:58:54.182Z,87.20
2018-11-25T05:59:41.838Z,78.28
2018-11-25T06:00:33.768Z,84.32
2018-11-25T06:01:21.471Z,78.07
2018-11-25T06:02:09.153Z,79.82
2018-11-25T06:02:56.748Z,86.25
2018-11-25T06:03:44.750Z,81.53
2018-11-25T06:04:32.275Z,89.65
2018-11-25T06:05:19.857Z,102.07
2018-11-25T06:06:07.382Z,84.13
2018-11-25T06:06:55.374Z,105.97
2018-11-25T06:07:43.621Z,85.95
2018-11-25T06:08:31.396Z,85.77
2018-11-25T06:09:19.618Z,85.38
2018-11-25T06:10:09.603Z,82.47
2018-11-25T06:10:57.362Z,88.17
2018-11-25T06:11:44.959Z,83.17
2018-11-25T06:12:32.481Z,85.28
2018-11-25T06:13:20.415Z,125.82
2018-11-25T06:14:08.170Z,92.85
2018-11-25T06:14:55.621Z,85.77
2018-11-25T06:15:43.384Z,92.20
2018-11-25T06:16:31.010Z,87.88
2018-11-25T06:17:18.885Z,97.50
2018-11-25T06:18:06.683Z,93.03
2018-11-25T06:18:54.085Z,94.50
2018-11-25T06:19:41.817Z,112.88
2018-11-25T06:20:29.458Z,97.15
2018-11-25T06:21:17.137Z,138.82
2018-11-25T06:22:04.974Z,94.03
2018-11-25T06:22:52.606Z,85.40
2018-11-25T06:23:40.559Z,101.82
2018-11-25T06:24:28.154Z,100.20
2018-11-25T06:25:20.084Z,97.82
2018-11-25T06:26:08.194Z,87.12
2018-11-25T06:26:55.687Z,89.52
2018-11-25T06:27:44.367Z,88.10
2018-11-25T06:28:32.615Z,86.80
2018-11-25T06:29:20.554Z,85.38
2018-11-25T06:30:21.047Z,91.37
2018-11-25T06:31:08.602Z,91.80
2018-11-25T06:31:56.247Z,94.85
2018-11-25T06:32:44.441Z,85.77
2018-11-25T06:33:32.798Z,84.03
2018-11-25T06:34:20.782Z,90.32
2018-11-25T06:35:10.132Z,78.60
2018-11-25T06:35:58.151Z,81.47
2018-11-25T06:36:45.999Z,73.92
2018-11-25T06:37:33.488Z,82.50
2018-11-25T06:38:21.582Z,77.97
2018-11-25T06:39:09.779Z,77.27
2018-11-25T06:39:57.774Z,78.65
2018-11-25T06:40:45.798Z,78.70
2018-11-25T06:41:34.286Z,81.47
2018-11-25T06:42:22.258Z,80.95
2018-11-25T06:43:10.147Z,72.27
2018-11-25T06:43:58.006Z,75.12
2018-11-25T06:44:45.720Z,73.90
2018-11-25T06:45:33.503Z,72.82
2018-11-25T06:46:21.307Z,76.53
2018-11-25T06:47:09.013Z,71.25
2018-11-25T06:47:57.338Z,89.50
2018-11-25T06:48:45.254Z,92.37
2018-11-25T06:49:33.240Z,87.65
2018-11-25T06:50:21.211Z,84.30
2018-11-25T06:51:09.287Z,88.00
2018-11-25T06:51:56.877Z,81.32
2018-11-25T06:52:44.318Z,77.90
2018-11-25T06:53:32.239Z,78.67
2018-11-25T06:54:20.605Z,74.30
2018-11-25T06:55:10.197Z,73.02
2018-11-25T06:55:57.997Z,75.22
2018-11-25T06:56:46.010Z,79.85
2018-11-25T06:57:33.506Z,77.08
2018-11-25T06:58:21.278Z,80.92
2018-11-25T06:59:08.737Z,108.17
2018-11-25T06:59:56.706Z,99.85
2018-11-25T07:00:44.290Z,95.07
2018-11-25T07:01:32.225Z,80.72
2018-11-25T07:02:19.772Z,77.35
2018-11-25T07:03:07.497Z,103.78
2018-11-25T07:03:55.277Z,78.52
2018-11-25T07:04:42.807Z,79.82
2018-11-25T07:05:30.218Z,89.65
2018-11-25T07:06:17.751Z,75.05
2018-11-25T07:07:05.687Z,75.47
2018-11-25T07:07:53.603Z,78.57
2018-11-25T07:08:41.267Z,75.22
2018-11-25T07:09:28.964Z,80.62
2018-11-25T07:10:23.164Z,78.22
2018-11-25T07:11:11.207Z,75.90
2018-11-25T07:11:58.712Z,73.65
2018-11-25T07:12:46.983Z,69.03
2018-11-25T07:13:34.666Z,72.08
2018-11-25T07:14:22.231Z,73.12
2018-11-25T07:15:14.228Z,65.87
2018-11-25T07:16:02.271Z,72.65
2018-11-25T07:16:50.562Z,83.45
2018-11-25T07:17:38.209Z,76.70
2018-11-25T07:18:25.723Z,78.25
2018-11-25T07:19:13.823Z,71.62
2018-11-25T07:20:01.871Z,74.47
2018-11-25T07:20:49.348Z,72.78
2018-11-25T07:21:37.115Z,69.50
2018-11-25T07:22:24.609Z,66.33
2018-11-25T07:23:12.090Z,80.72
2018-11-25T07:24:00.063Z,74.32
2018-11-25T07:24:47.778Z,76.57
2018-11-25T07:25:35.537Z,74.70
2018-11-25T07:26:23.839Z,74.85
2018-11-25T07:27:11.409Z,67.85
2018-11-25T07:27:59.148Z,70.78
2018-11-25T07:28:46.977Z,76.17
2018-11-25T07:29:34.470Z,69.40
2018-11-25T07:30:26.156Z,96.30
2018-11-25T07:31:14.186Z,75.08
2018-11-25T07:32:01.781Z,72.55
2018-11-25T07:32:49.426Z,73.30
2018-11-25T07:33:36.975Z,94.72
2018-11-25T07:34:24.557Z,76.67
2018-11-25T07:35:12.745Z,86.57
2018-11-25T07:36:00.459Z,77.87
2018-11-25T07:36:48.372Z,75.65
2018-11-25T07:37:36.549Z,72.42
2018-11-25T07:38:24.529Z,70.00
2018-11-25T07:39:12.192Z,65.05
2018-11-25T07:39:59.926Z,69.80
2018-11-25T07:40:47.430Z,74.32
2018-11-25T07:41:34.959Z,74.75
2018-11-25T07:42:22.916Z,65.78
2018-11-25T07:43:10.682Z,71.42
2018-11-25T07:43:58.649Z,68.95
2018-11-25T07:44:46.086Z,62.65
2018-11-25T07:45:33.654Z,64.05
2018-11-25T07:46:21.631Z,63.38
2018-11-25T07:47:09.622Z,66.07
2018-11-25T07:47:57.054Z,61.55
2018-11-25T07:48:44.679Z,61.13
2018-11-25T07:49:36.790Z,63.60
2018-11-25T07:50:24.668Z,63.98
2018-11-25T07:51:12.206Z,65.85
2018-11-25T07:52:00.330Z,70.25
2018-11-25T07:52:48.970Z,64.12
2018-11-25T07:53:41.518Z,62.90
2018-11-25T07:54:29.655Z,66.47
2018-11-25T07:55:19.704Z,62.45
2018-11-25T07:56:07.482Z,67.72
2018-11-25T07:56:55.268Z,70.57
2018-11-25T07:57:48.266Z,71.85
2018-11-25T07:58:36.865Z,64.85
2018-11-25T07:59:24.446Z,60.00
2018-11-25T08:00:19.091Z,62.73
2018-11-25T08:01:07.156Z,63.58
2018-11-25T08:01:55.823Z,77.08
2018-11-25T08:02:43.397Z,72.53
2018-11-25T08:03:30.943Z,64.75
2018-11-25T08:04:18.629Z,66.35
2018-11-25T08:05:08.118Z,68.15
2018-11-25T08:05:55.769Z,67.10
2018-11-25T08:06:44.115Z,67.90
2018-11-25T08:07:32.703Z,65.05
2018-11-25T08:08:20.597Z,70.17
2018-11-25T08:09:09.049Z,66.05
2018-11-25T08:09:56.902Z,58.83
2018-11-25T08:10:47.862Z,69.17
2018-11-25T08:11:35.407Z,72.37
2018-11-25T08:12:23.430Z,65.45
2018-11-25T08:13:11.297Z,66.80
2018-11-25T08:13:59.017Z,67.65
2018-11-25T08:14:46.967Z,64.65
2018-11-25T08:15:34.845Z,69.03
2018-11-25T08:16:22.634Z,67.27
2018-11-25T08:17:10.371Z,69.85
2018-11-25T08:17:57.965Z,64.82
2018-11-25T08:18:45.770Z,62.33
2018-11-25T08:19:33.329Z,71.12
2018-11-25T08:20:22.348Z,65.20
2018-11-25T08:21:10.070Z,62.85
2018-11-25T08:21:57.570Z,69.12
2018-11-25T08:22:45.198Z,62.10
2018-11-25T08:23:32.689Z,70.47
2018-11-25T08:24:20.426Z,60.75
2018-11-25T08:25:11.875Z,66.67
2018-11-25T08:26:00.078Z,60.40
2018-11-25T08:26:47.872Z,65.12
2018-11-25T08:27:36.018Z,57.83
2018-11-25T08:28:23.833Z,58.50
2018-11-25T08:29:11.746Z,55.67
2018-11-25T08:29:59.302Z,64.27
2018-11-25T08:30:46.811Z,59.03
2018-11-25T08:31:34.300Z,63.13
2018-11-25T08:32:21.878Z,61.20
2018-11-25T08:33:09.866Z,60.08
2018-11-25T08:33:57.723Z,55.08
2018-11-25T08:34:45.249Z,58.17
2018-11-25T08:35:33.246Z,56.02
2018-11-25T08:36:20.805Z,57.15
2018-11-25T08:37:08.469Z,57.08
2018-11-25T08:37:56.044Z,63.33
2018-11-25T08:38:43.627Z,58.73
2018-11-25T08:39:31.408Z,59.40
2018-11-25T08:40:25.690Z,52.38
2018-11-25T08:41:13.226Z,53.02
2018-11-25T08:42:00.729Z,54.95
2018-11-25T08:42:48.644Z,57.23
2018-11-25T08:43:36.601Z,60.90
2018-11-25T08:44:24.231Z,53.95
2018-11-25T08:45:12.729Z,54.88
2018-11-25T08:46:00.459Z,59.08
2018-11-25T08:46:48.458Z,53.17
2018-11-25T08:47:36.413Z,54.85
2018-11-25T08:48:24.649Z,57.95
2018-11-25T08:49:12.646Z,52.67
2018-11-25T08:50:00.373Z,50.92
2018-11-25T08:50:47.879Z,51.05
2018-11-25T08:51:35.708Z,50.05
2018-11-25T08:52:23.758Z,51.60
2018-11-25T08:53:11.480Z,53.52
2018-11-25T08:53:59.122Z,52.60
2018-11-25T08:54:46.687Z,55.43
2018-11-25T08:55:34.242Z,58.30
2018-11-25T08:56:22.243Z,53.13
2018-11-25T08:57:09.886Z,52.95
2018-11-25T08:57:57.578Z,54.53
2018-11-25T08:58:46.686Z,49.30
2018-11-25T08:59:34.882Z,59.35
2018-11-25T09:00:24.243Z,54.58
2018-11-25T09:01:11.895Z,55.05
2018-11-25T09:01:59.577Z,58.92
2018-11-25T09:02:47.348Z,54.93
2018-11-25T09:03:35.390Z,57.80
2018-11-25T09:04:23.199Z,56.02
2018-11-25T09:05:11.883Z,56.53
2018-11-25T09:06:00.958Z,55.03
2018-11-25T09:06:48.306Z,55.50
2018-11-25T09:07:35.823Z,52.17
2018-11-25T09:08:23.795Z,55.25
2018-11-25T09:09:11.365Z,51.10
2018-11-25T09:09:59.450Z,60.90
2018-11-25T09:10:47.337Z,57.38
2018-11-25T09:11:35.049Z,54.77
2018-11-25T09:12:23.306Z,53.00
2018-11-25T09:13:10.830Z,62.20
2018-11-25T09:13:58.367Z,58.48
2018-11-25T09:14:46.222Z,54.85
2018-11-25T09:15:34.087Z,56.98
2018-11-25T09:16:21.882Z,59.58
2018-11-25T09:17:09.887Z,57.85
2018-11-25T09:17:57.819Z,64.85
2018-11-25T09:18:45.986Z,52.95
2018-11-25T09:19:33.996Z,53.70
2018-11-25T09:20:24.634Z,53.30
2018-11-25T09:21:12.295Z,49.65
2018-11-25T09:22:00.067Z,58.75
2018-11-25T09:22:47.773Z,52.98
2018-11-25T09:23:35.513Z,52.93
2018-11-25T09:24:23.300Z,54.27
2018-11-25T09:25:33.274Z,51.40
2018-11-25T09:26:22.075Z,53.80
2018-11-25T09:27:10.219Z,51.50
2018-11-25T09:27:59.225Z,55.73
2018-11-25T09:28:47.050Z,52.23
2018-11-25T09:29:35.234Z,54.60
2018-11-25T09:30:24.007Z,48.42
2018-11-25T09:31:12.033Z,49.33
2018-11-25T09:31:59.730Z,47.23
2018-11-25T09:32:47.320Z,49.27
2018-11-25T09:33:35.205Z,44.55
2018-11-25T09:34:23.154Z,51.48
2018-11-25T09:35:10.777Z,52.45
2018-11-25T09:35:58.735Z,53.25
2018-11-25T09:36:46.508Z,49.23
2018-11-25T09:37:34.049Z,50.65
2018-11-25T09:38:21.728Z,55.38
2018-11-25T09:39:10.163Z,56.95
2018-11-25T09:39:58.107Z,48.55
2018-11-25T09:40:45.891Z,50.63
2018-11-25T09:41:33.767Z,56.80
2018-11-25T09:42:22.548Z,51.05
2018-11-25T09:43:10.444Z,50.92
2018-11-25T09:43:58.508Z,50.65
2018-11-25T09:44:45.969Z,48.08
2018-11-25T09:45:33.618Z,48.73
2018-11-25T09:46:21.192Z,43.58
2018-11-25T09:47:08.761Z,47.23
2018-11-25T09:47:56.405Z,44.03
2018-11-25T09:48:43.968Z,46.30
2018-11-25T09:49:33.179Z,45.95
2018-11-25T09:50:24.678Z,48.63
2018-11-25T09:51:12.735Z,47.17
2018-11-25T09:52:00.448Z,47.98
2018-11-25T09:52:48.554Z,45.60
2018-11-25T09:53:36.125Z,45.03
2018-11-25T09:54:23.815Z,44.15
2018-11-25T09:55:18.275Z,41.65
2018-11-25T09:56:06.821Z,43.00
2018-11-25T09:56:54.749Z,42.70
2018-11-25T09:57:43.488Z,42.20
2018-11-25T09:58:31.609Z,43.80
2018-11-25T09:59:19.125Z,43.92
2018-11-25T10:00:29.890Z,40.95
2018-11-25T10:01:18.021Z,41.33
2018-11-25T10:02:06.658Z,39.63
2018-11-25T10:02:54.595Z,40.88
2018-11-25T10:03:42.602Z,39.55
2018-11-25T10:04:30.146Z,41.30
2018-11-25T10:05:17.892Z,38.65
2018-11-25T10:06:06.395Z,40.38
2018-11-25T10:06:54.061Z,37.38
2018-11-25T10:07:42.061Z,37.93
2018-11-25T10:08:30.157Z,39.05
2018-11-25T10:09:19.175Z,40.43
2018-11-25T10:10:12.417Z,37.85
2018-11-25T10:11:00.329Z,36.50
2018-11-25T10:11:48.060Z,37.42
2018-11-25T10:12:35.743Z,37.80
2018-11-25T10:13:23.287Z,38.50
2018-11-25T10:14:11.078Z,38.67
2018-11-25T10:14:59.026Z,39.20
2018-11-25T10:15:46.630Z,38.20
2018-11-25T10:16:34.278Z,39.15
2018-11-25T10:17:23.039Z,39.27